»·PEaware :: N288EH KVNY-KPVU

N288EH :: KVNY-KPVU

FLIGHT INFORMATION

Flight Status: Arrived
Operator: Privately registered:
United States
More flights under this callsign
Pilot: Andrew G. (414)
Aircraft: SOCATA TBM-900
(TBM9)
More flights by this aircraft type
Origin: KVNY Van Nuys
United States
Destination: KPVU Provo Mun
United States
More flights between these airports :: More routes between these airports
Route: BERRI V459 DARTS V186 PIRRO V210 BASAL V394 MMM V21 REEKA
File this flight plan on PilotEdge
Remarks:
Altitude:
(Current/Filed)
26,000ft
Speed:
(Current/Filed)
300kts
Departed: 31-Jan-21 12:51 AM
Arrived: 31-Jan-21 02:15 AM
Distance/Time
Traveled:
484nm/1:24
Distance/Time
To Go:
Arrived

Flight Plot

Page will automatically refresh every two minutes.

Flight plan parsing failed; only flown route is shown


Map Options




Map Legend


Flown Route
Filed Route
Departure Airport
Arrival Airport
Navaid (VOR, NDB)
Fix

Horizontal Profiles

Position Reports

Time Latitude Longitude Heading Altitude Ground
Speed
31-Jan-21 00:49 34.965483 -116.574349 38 26314ft 329kts
31-Jan-21 00:50 35.029279 -116.495033 38 26317ft 328kts
31-Jan-21 00:51 35.082246 -116.428964 38 26317ft 328kts
31-Jan-21 00:52 35.132864 -116.365718 38 26317ft 328kts
31-Jan-21 00:53 35.196553 -116.285958 38 26307ft 327kts
31-Jan-21 00:54 35.260166 -116.206124 38 26309ft 326kts
31-Jan-21 00:55 35.323207 -116.126784 38 26309ft 326kts
31-Jan-21 00:56 35.386541 -116.046906 39 26312ft 326kts
31-Jan-21 00:57 35.449421 -115.967395 38 26326ft 325kts
31-Jan-21 00:58 35.512210 -115.887829 38 26344ft 324kts
31-Jan-21 00:59 35.575127 -115.807917 38 26350ft 324kts
31-Jan-21 01:00 35.637583 -115.728369 38 26350ft 324kts
31-Jan-21 01:01 35.700267 -115.648351 38 26351ft 324kts
31-Jan-21 01:02 35.762735 -115.568414 38 26352ft 324kts
31-Jan-21 01:03 35.825303 -115.488146 38 26353ft 324kts
31-Jan-21 01:04 35.887667 -115.407965 38 26345ft 325kts
31-Jan-21 01:05 35.950524 -115.326937 39 26320ft 325kts
31-Jan-21 01:06 36.012672 -115.246652 39 26308ft 324kts
31-Jan-21 01:07 36.074672 -115.166321 39 26310ft 322kts
31-Jan-21 01:08 36.137155 -115.087182 38 26318ft 321kts
31-Jan-21 01:09 36.199678 -115.007985 38 26325ft 321kts
31-Jan-21 01:10 36.262106 -114.928715 37 26330ft 321kts
31-Jan-21 01:11 36.324279 -114.849577 37 26331ft 321kts
31-Jan-21 01:12 36.386435 -114.770262 37 26332ft 321kts
31-Jan-21 01:13 36.448267 -114.691172 37 26332ft 320kts
31-Jan-21 01:14 36.510504 -114.611367 37 26335ft 320kts
31-Jan-21 01:15 36.572313 -114.531913 37 26343ft 320kts
31-Jan-21 01:16 36.634095 -114.452305 37 26351ft 320kts
31-Jan-21 01:17 36.695997 -114.372341 37 26354ft 320kts
31-Jan-21 01:18 36.757600 -114.292575 38 26344ft 320kts
31-Jan-21 01:19 36.828536 -114.231490 22 26345ft 307kts
31-Jan-21 01:20 36.900893 -114.175285 22 26351ft 307kts
31-Jan-21 01:21 36.973556 -114.118718 22 26358ft 307kts
31-Jan-21 01:22 37.045852 -114.062294 23 26365ft 308kts
31-Jan-21 01:23 37.118716 -114.005302 22 26374ft 307kts
31-Jan-21 01:24 37.190991 -113.948647 22 26365ft 307kts
31-Jan-21 01:25 37.263531 -113.891646 22 26353ft 307kts
31-Jan-21 01:26 37.335709 -113.834797 22 26349ft 307kts
31-Jan-21 01:28 37.407788 -113.777911 23 26350ft 307kts
31-Jan-21 01:29 37.480064 -113.720710 23 26350ft 306kts
31-Jan-21 01:30 37.552252 -113.663454 23 26350ft 306kts
31-Jan-21 01:31 37.624036 -113.606386 23 26351ft 307kts
31-Jan-21 01:32 37.696407 -113.548716 23 26351ft 307kts
31-Jan-21 01:33 37.768457 -113.491168 23 26352ft 307kts
31-Jan-21 01:34 37.840737 -113.433300 23 26365ft 306kts
31-Jan-21 01:35 37.912650 -113.375594 23 26370ft 307kts
31-Jan-21 01:36 37.984929 -113.317455 23 26361ft 306kts
31-Jan-21 01:37 38.056520 -113.259729 23 26361ft 305kts
31-Jan-21 01:38 38.127956 -113.201998 23 26365ft 304kts
31-Jan-21 01:39 38.199395 -113.144123 23 26365ft 304kts
31-Jan-21 01:40 38.270612 -113.086297 23 26366ft 304kts
31-Jan-21 01:41 38.342192 -113.028049 23 26367ft 307kts
31-Jan-21 01:42 38.418210 -112.982474 12 26370ft 299kts
31-Jan-21 01:43 38.494650 -112.941744 12 26373ft 299kts
31-Jan-21 01:43 38.558639 -112.907577 12 26376ft 300kts
31-Jan-21 01:45 38.648670 -112.859392 12 26380ft 300kts
31-Jan-21 01:46 38.725763 -112.818022 12 26383ft 300kts
31-Jan-21 01:46 38.789690 -112.783653 12 26386ft 300kts
31-Jan-21 01:48 38.879712 -112.735143 12 26386ft 300kts
31-Jan-21 01:48 38.943717 -112.700577 12 26389ft 300kts
31-Jan-21 01:50 39.033229 -112.652094 12 26394ft 300kts
31-Jan-21 01:50 39.097287 -112.617306 12 26396ft 300kts
31-Jan-21 01:51 39.174312 -112.575390 13 26393ft 300kts
31-Jan-21 01:52 39.255409 -112.531243 15 25038ft 328kts
31-Jan-21 01:53 39.340405 -112.483790 17 23557ft 336kts
31-Jan-21 01:54 39.425997 -112.434684 18 22059ft 335kts
31-Jan-21 01:55 39.508774 -112.387089 18 20618ft 319kts
31-Jan-21 01:56 39.588968 -112.340884 20 19205ft 314kts
31-Jan-21 01:57 39.649961 -112.305632 20 18129ft 302kts
31-Jan-21 01:58 39.725830 -112.261712 20 16801ft 288kts
31-Jan-21 01:59 39.798562 -112.219497 21 15536ft 284kts
31-Jan-21 02:00 39.871190 -112.177239 22 14277ft 284kts
31-Jan-21 02:01 39.940974 -112.136525 21 13912ft 261kts
31-Jan-21 02:02 40.005754 -112.098666 22 13344ft 246kts
31-Jan-21 02:03 40.067280 -112.062640 23 12385ft 242kts
31-Jan-21 02:04 40.129408 -112.026184 23 11336ft 241kts
31-Jan-21 02:05 40.190798 -111.990098 24 10269ft 237kts
31-Jan-21 02:06 40.251546 -111.954325 23 9207ft 233kts
31-Jan-21 02:07 40.310600 -111.968990 328 9000ft 221kts
31-Jan-21 02:08 40.364863 -111.955633 40 8223ft 210kts
31-Jan-21 02:09 40.374584 -111.894798 117 7991ft 180kts
31-Jan-21 02:10 40.348591 -111.839272 145 7719ft 183kts
31-Jan-21 02:11 40.305642 -111.801318 143 6426ft 184kts
31-Jan-21 02:12 40.267286 -111.766098 143 5282ft 132kts
31-Jan-21 02:13 40.240664 -111.741764 145 4833ft 95kts
31-Jan-21 02:14 40.223936 -111.726836 145 4491ft 27kts
31-Jan-21 02:15 40.223360 -111.723804 348 4495ft 11kts
31-Jan-21 02:16 40.225166 -111.725417 324 4494ft 18kts
31-Jan-21 02:17 40.229172 -111.728087 54 4491ft 10kts
31-Jan-21 02:18 40.230252 -111.728794 236 4491ft 0kts
31-Jan-21 02:19 40.230252 -111.728794 236 4491ft 0kts
31-Jan-21 02:20 40.230252 -111.728794 236 4491ft 0kts
31-Jan-21 02:21 40.230252 -111.728794 236 4491ft 0kts
31-Jan-21 02:22 40.230252 -111.728794 236 4491ft 0kts
31-Jan-21 02:23 40.230252 -111.728794 236 4491ft 0kts
31-Jan-21 02:24 40.230252 -111.728794 236 4491ft 0kts

Navigation Log

Ident Type
Flight plan parsing failed, navigation log unavailable